Time;durP1;ratioP1;P1;durP2;ratioP2;P2;SDS_P1;SDS_P2;PMS_P1;PMS_P2;Temp;Humidity;BMP_temperature;BMP_pressure;BME280_temperature;BME280_humidity;BME280_pressure;Samples;Min_cycle;Max_cycle;Signal;HPM_P1;HPM_P2
2023/03/11 00:00:49;;;;;;;4.13;1.13;;;;;;;;;;5034167;28;20067;-75
2023/03/11 00:03:17;;;;;;;2.55;0.70;;;;;;;;;;5032337;28;20037;-75
2023/03/11 00:05:44;;;;;;;3.00;0.82;;;;;;;;;;5032474;28;20025;-75
2023/03/11 00:08:13;;;;;;;3.22;1.20;;;;;;;;;;5036689;28;20490;-75
2023/03/11 00:10:40;;;;;;;5.15;1.20;;;;;;;;;;5028255;28;20026;-75
2023/03/11 00:13:07;;;;;;;2.35;0.57;;;;;;;;;;5032057;28;20041;-75
2023/03/11 00:15:33;;;;;;;2.38;0.68;;;;;;;;;;5027570;28;20020;-75
2023/03/11 00:17:59;;;;;;;3.90;0.88;;;;;;;;;;5019449;28;20057;-75
2023/03/11 00:20:27;;;;;;;1.40;0.40;;;;;;;;;;5026766;28;20070;-75
2023/03/11 00:22:53;;;;;;;2.28;0.80;;;;;;;;;;5024071;28;20739;-75
2023/03/11 00:25:20;;;;;;;2.25;0.50;;;;;;;;;;5031149;28;20543;-75
2023/03/11 00:27:46;;;;;;;6.50;2.25;;;;;;;;;;5032250;28;20063;-74
2023/03/11 00:30:13;;;;;;;2.03;0.70;;;;;;;;;;5028511;28;20034;-75
2023/03/11 00:32:39;;;;;;;2.13;0.52;;;;;;;;;;5032347;28;20036;-74
2023/03/11 00:35:06;;;;;;;4.15;1.40;;;;;;;;;;5021967;28;20056;-75
2023/03/11 00:37:32;;;;;;;5.25;1.30;;;;;;;;;;5019698;28;20112;-75
2023/03/11 00:39:58;;;;;;;2.35;1.10;;;;;;;;;;5027901;28;20034;-75
2023/03/11 00:42:24;;;;;;;3.78;1.45;;;;;;;;;;5035533;28;20029;-75
2023/03/11 00:44:51;;;;;;;2.47;1.08;;;;;;;;;;5024765;28;20383;-75
2023/03/11 00:47:17;;;;;;;2.97;1.48;;;;;;;;;;5030181;28;20037;-75
2023/03/11 00:49:43;;;;;;;3.17;1.50;;;;;;;;;;5036743;28;20040;-75
2023/03/11 00:52:09;;;;;;;3.33;1.33;;;;;;;;;;5030425;28;20033;-75
2023/03/11 00:54:35;;;;;;;3.53;1.42;;;;;;;;;;5027566;28;20483;-75
2023/03/11 00:57:00;;;;;;;4.40;1.77;;;;;;;;;;5032043;28;20061;-75
2023/03/11 00:59:26;;;;;;;5.25;1.85;;;;;;;;;;5029848;28;20034;-75
2023/03/11 01:01:52;;;;;;;6.88;2.35;;;;;;;;;;5015678;28;20143;-75
2023/03/11 01:04:18;;;;;;;2.30;1.25;;;;;;;;;;5025981;28;20036;-75
2023/03/11 01:06:44;;;;;;;4.40;1.67;;;;;;;;;;5017697;28;20443;-75
2023/03/11 01:09:10;;;;;;;2.80;1.52;;;;;;;;;;5017396;28;20076;-75
2023/03/11 01:11:36;;;;;;;6.60;1.73;;;;;;;;;;5019263;28;20034;-74
2023/03/11 01:14:03;;;;;;;3.83;1.65;;;;;;;;;;5020720;28;20025;-75
2023/03/11 01:16:29;;;;;;;3.95;1.77;;;;;;;;;;5025677;28;20104;-75
2023/03/11 01:18:55;;;;;;;3.67;1.75;;;;;;;;;;5026579;28;20033;-75
2023/03/11 01:21:21;;;;;;;4.70;2.28;;;;;;;;;;5022183;28;20057;-75
2023/03/11 01:23:47;;;;;;;4.68;2.20;;;;;;;;;;5030742;28;20501;-75
2023/03/11 01:26:14;;;;;;;5.25;2.75;;;;;;;;;;5026192;28;20033;-75
2023/03/11 01:28:40;;;;;;;4.72;1.60;;;;;;;;;;5029972;28;20505;-75
2023/03/11 01:31:06;;;;;;;9.90;3.85;;;;;;;;;;5015679;28;20080;-75
2023/03/11 01:33:32;;;;;;;4.93;2.05;;;;;;;;;;5022541;28;20569;-75
2023/03/11 01:35:58;;;;;;;4.43;1.85;;;;;;;;;;5027248;28;20025;-74
2023/03/11 01:38:24;;;;;;;5.78;2.53;;;;;;;;;;5034746;28;20427;-75
2023/03/11 01:40:51;;;;;;;8.05;3.10;;;;;;;;;;5023007;28;20105;-75
2023/03/11 01:43:35;;;;;;;6.80;2.53;;;;;;;;;;5023832;28;20040;-75
2023/03/11 01:46:01;;;;;;;5.38;2.28;;;;;;;;;;5031254;28;20075;-75
2023/03/11 01:48:28;;;;;;;5.95;2.72;;;;;;;;;;5029750;28;20033;-75
2023/03/11 01:50:54;;;;;;;5.82;1.77;;;;;;;;;;5021522;28;20033;-75
2023/03/11 01:53:21;;;;;;;5.03;1.80;;;;;;;;;;5024231;28;20038;-75
2023/03/11 01:55:47;;;;;;;6.53;1.70;;;;;;;;;;5026967;28;20648;-75
2023/03/11 01:58:33;;;;;;;4.65;1.75;;;;;;;;;;5020988;28;20038;-75
2023/03/11 02:01:01;;;;;;;3.20;1.35;;;;;;;;;;5027126;28;20087;-75
2023/03/11 02:03:29;;;;;;;3.08;1.00;;;;;;;;;;5035424;28;20419;-75
2023/03/11 02:05:56;;;;;;;2.35;0.88;;;;;;;;;;5024634;28;20029;-75
2023/03/11 02:08:23;;;;;;;4.15;1.50;;;;;;;;;;5029527;28;20117;-74
2023/03/11 02:10:50;;;;;;;5.70;1.88;;;;;;;;;;5025955;28;20041;-75
2023/03/11 02:13:16;;;;;;;2.55;1.05;;;;;;;;;;5020785;28;20034;-75
2023/03/11 02:15:42;;;;;;;3.58;0.88;;;;;;;;;;5023469;28;20749;-75
2023/03/11 02:18:08;;;;;;;2.85;0.80;;;;;;;;;;5027899;28;20041;-75
2023/03/11 02:20:45;;;;;;;3.90;0.80;;;;;;;;;;5034493;28;20034;-75
2023/03/11 02:23:12;;;;;;;1.98;0.75;;;;;;;;;;5018375;28;20145;-75
2023/03/11 02:25:42;;;;;;;3.90;0.95;;;;;;;;;;5033756;28;20063;-75
2023/03/11 02:28:09;;;;;;;0.95;0.35;;;;;;;;;;5029983;28;20038;-75
2023/03/11 02:30:36;;;;;;;2.55;0.80;;;;;;;;;;5016999;28;20026;-75
2023/03/11 02:33:02;;;;;;;4.57;1.30;;;;;;;;;;5024270;28;20042;-75
2023/03/11 02:35:30;;;;;;;4.45;1.20;;;;;;;;;;5018280;28;20045;-75
2023/03/11 02:37:56;;;;;;;4.00;1.40;;;;;;;;;;5043582;28;20032;-75
2023/03/11 02:40:22;;;;;;;4.10;1.55;;;;;;;;;;5037162;28;20075;-75
2023/03/11 02:42:49;;;;;;;4.50;1.65;;;;;;;;;;5028777;28;20409;-75
2023/03/11 02:45:16;;;;;;;5.07;1.90;;;;;;;;;;5034603;28;20041;-75
2023/03/11 02:47:42;;;;;;;2.88;1.40;;;;;;;;;;5021080;28;20379;-75
2023/03/11 02:50:09;;;;;;;5.53;1.42;;;;;;;;;;5034201;28;20060;-75
2023/03/11 02:52:35;;;;;;;3.28;1.45;;;;;;;;;;5026130;28;20029;-75
2023/03/11 02:55:01;;;;;;;3.22;1.88;;;;;;;;;;5034714;28;20042;-75
2023/03/11 02:57:27;;;;;;;3.78;1.88;;;;;;;;;;5030491;28;20044;-75
2023/03/11 02:59:53;;;;;;;1.70;0.50;;;;;;;;;;5035397;28;20033;-75
2023/03/11 03:02:20;;;;;;;2.88;0.40;;;;;;;;;;5029328;28;20037;-75
2023/03/11 03:04:46;;;;;;;1.38;0.20;;;;;;;;;;5032418;28;20092;-75
2023/03/11 03:07:12;;;;;;;0.43;0.20;;;;;;;;;;5028114;28;20033;-74
2023/03/11 03:09:38;;;;;;;1.50;0.40;;;;;;;;;;5024577;28;20036;-75
2023/03/11 03:12:04;;;;;;;1.05;0.30;;;;;;;;;;5042679;28;20029;-75
2023/03/11 03:14:30;;;;;;;0.98;0.30;;;;;;;;;;5012236;28;20498;-75
2023/03/11 03:16:57;;;;;;;4.68;0.90;;;;;;;;;;5026386;28;20069;-75
2023/03/11 03:19:23;;;;;;;5.53;1.50;;;;;;;;;;5029820;28;20043;-74
2023/03/11 03:21:49;;;;;;;3.75;1.15;;;;;;;;;;5024807;28;20434;-75
2023/03/11 03:24:15;;;;;;;3.05;0.60;;;;;;;;;;5023640;28;20045;-75
2023/03/11 03:26:41;;;;;;;0.77;0.40;;;;;;;;;;5025055;28;20467;-74
2023/03/11 03:29:07;;;;;;;0.68;0.20;;;;;;;;;;5019997;28;20033;-75
2023/03/11 03:31:33;;;;;;;0.80;0.20;;;;;;;;;;5029982;28;20142;-74
2023/03/11 03:33:59;;;;;;;2.55;0.45;;;;;;;;;;5018387;28;20041;-75
2023/03/11 03:36:25;;;;;;;0.57;0.20;;;;;;;;;;5018498;28;20026;-74
2023/03/11 03:38:55;;;;;;;1.33;0.30;;;;;;;;;;5023226;28;20149;-74
2023/03/11 03:41:21;;;;;;;1.33;0.40;;;;;;;;;;5036951;28;20063;-74
2023/03/11 03:43:47;;;;;;;2.20;0.55;;;;;;;;;;5035088;28;20026;-74
2023/03/11 03:46:13;;;;;;;1.08;0.55;;;;;;;;;;5021482;28;20475;-75
2023/03/11 03:48:39;;;;;;;1.67;0.50;;;;;;;;;;5019117;28;20030;-75
2023/03/11 03:51:06;;;;;;;0.75;0.28;;;;;;;;;;5021724;28;20026;-74
2023/03/11 03:53:35;;;;;;;0.57;0.30;;;;;;;;;;5015484;28;20073;-75
2023/03/11 03:56:03;;;;;;;0.98;0.35;;;;;;;;;;5020001;28;20109;-74
2023/03/11 03:58:29;;;;;;;0.65;0.25;;;;;;;;;;5018768;28;20422;-74
2023/03/11 04:00:56;;;;;;;0.93;0.30;;;;;;;;;;5022616;28;20034;-74
2023/03/11 04:03:22;;;;;;;0.90;0.30;;;;;;;;;;5014987;28;20471;-74
2023/03/11 04:05:48;;;;;;;0.88;0.40;;;;;;;;;;5025424;28;20040;-74
2023/03/11 04:08:14;;;;;;;0.68;0.30;;;;;;;;;;5026257;28;20065;-74
2023/03/11 04:10:40;;;;;;;1.65;0.40;;;;;;;;;;5026536;28;20055;-75
2023/03/11 04:13:06;;;;;;;1.08;0.40;;;;;;;;;;5022236;28;20055;-74
2023/03/11 04:15:32;;;;;;;1.05;0.50;;;;;;;;;;5023634;28;20072;-74
2023/03/11 04:17:58;;;;;;;1.23;0.40;;;;;;;;;;5032938;28;20573;-75
2023/03/11 04:20:24;;;;;;;1.73;0.43;;;;;;;;;;5037676;28;20025;-75
2023/03/11 04:22:50;;;;;;;1.52;0.40;;;;;;;;;;5027102;28;20059;-75
2023/03/11 04:25:16;;;;;;;2.00;0.93;;;;;;;;;;5038354;28;20028;-75
2023/03/11 04:27:44;;;;;;;10.63;3.90;;;;;;;;;;5034488;28;20029;-75
2023/03/11 04:30:11;;;;;;;10.10;3.83;;;;;;;;;;5028542;28;20471;-74
2023/03/11 04:32:37;;;;;;;6.15;2.45;;;;;;;;;;5013383;28;20044;-75
2023/03/11 04:35:03;;;;;;;12.05;3.53;;;;;;;;;;5032821;28;20029;-74
2023/03/11 04:37:29;;;;;;;9.55;6.10;;;;;;;;;;5031055;28;22140;-75
2023/03/11 04:39:55;;;;;;;4.05;0.98;;;;;;;;;;5027108;28;20026;-74
2023/03/11 04:42:21;;;;;;;12.60;8.32;;;;;;;;;;5032702;28;20771;-75
2023/03/11 04:44:47;;;;;;;2.80;1.20;;;;;;;;;;5032574;28;20095;-74
2023/03/11 04:47:13;;;;;;;1.45;0.50;;;;;;;;;;5028168;28;20033;-75
2023/03/11 04:49:39;;;;;;;3.17;0.82;;;;;;;;;;5016228;28;20120;-75
2023/03/11 04:52:05;;;;;;;0.80;0.30;;;;;;;;;;5025657;28;20033;-75
2023/03/11 04:54:32;;;;;;;2.35;0.63;;;;;;;;;;5027769;28;20455;-75
2023/03/11 04:56:58;;;;;;;10.90;7.13;;;;;;;;;;5025024;28;20113;-75
2023/03/11 04:59:24;;;;;;;5.45;1.73;;;;;;;;;;5038342;28;20112;-75
2023/03/11 05:01:50;;;;;;;6.10;1.92;;;;;;;;;;5035210;28;20113;-75
2023/03/11 05:04:16;;;;;;;5.45;1.20;;;;;;;;;;5030998;28;20606;-75
2023/03/11 05:06:42;;;;;;;2.80;0.70;;;;;;;;;;5030860;28;20124;-75
2023/03/11 05:09:08;;;;;;;1.35;0.50;;;;;;;;;;5028542;28;20147;-75
2023/03/11 05:11:34;;;;;;;7.22;2.45;;;;;;;;;;5023752;28;20485;-75
2023/03/11 05:14:00;;;;;;;11.30;7.32;;;;;;;;;;5016365;28;20025;-75
2023/03/11 05:16:26;;;;;;;10.57;6.70;;;;;;;;;;5010555;28;20786;-75
2023/03/11 05:18:52;;;;;;;6.53;3.88;;;;;;;;;;5025422;28;20061;-75
2023/03/11 05:21:18;;;;;;;5.53;1.83;;;;;;;;;;5019773;28;20531;-75
2023/03/11 05:23:44;;;;;;;5.00;2.20;;;;;;;;;;5026394;28;20033;-75
2023/03/11 05:26:11;;;;;;;2.78;0.50;;;;;;;;;;5024436;28;20048;-75
2023/03/11 05:28:37;;;;;;;4.90;1.70;;;;;;;;;;5025251;28;20123;-74
2023/03/11 05:31:07;;;;;;;13.93;7.53;;;;;;;;;;5026637;28;20065;-75
2023/03/11 05:33:34;;;;;;;6.72;4.63;;;;;;;;;;5024097;28;20111;-75
2023/03/11 05:36:05;;;;;;;5.28;2.97;;;;;;;;;;5026701;28;20029;-75
2023/03/11 05:38:31;;;;;;;8.68;5.18;;;;;;;;;;5026309;28;20033;-74
2023/03/11 05:40:57;;;;;;;19.45;15.15;;;;;;;;;;5024535;28;20041;-75
2023/03/11 05:43:23;;;;;;;6.22;3.10;;;;;;;;;;5026715;28;20037;-75
2023/03/11 05:45:49;;;;;;;7.60;3.40;;;;;;;;;;5027789;28;20036;-75
2023/03/11 05:48:14;;;;;;;6.70;3.00;;;;;;;;;;5025517;28;20037;-75
2023/03/11 05:50:41;;;;;;;2.45;0.70;;;;;;;;;;5027227;28;20025;-75
2023/03/11 05:53:07;;;;;;;3.53;0.90;;;;;;;;;;5027365;28;20140;-75
2023/03/11 05:55:32;;;;;;;3.10;1.08;;;;;;;;;;5029164;28;20105;-74
2023/03/11 05:57:58;;;;;;;2.63;0.90;;;;;;;;;;5020103;28;20029;-75
2023/03/11 06:00:28;;;;;;;3.05;0.70;;;;;;;;;;5030578;28;20037;-74
2023/03/11 06:02:54;;;;;;;2.55;0.70;;;;;;;;;;5030414;28;20036;-74
2023/03/11 06:05:20;;;;;;;3.25;1.27;;;;;;;;;;5025583;28;20046;-75
2023/03/11 06:07:46;;;;;;;2.17;0.70;;;;;;;;;;5028790;28;20029;-75
2023/03/11 06:10:13;;;;;;;3.13;1.50;;;;;;;;;;5030090;28;20030;-75
2023/03/11 06:12:39;;;;;;;1.90;0.70;;;;;;;;;;5024797;28;20030;-75
2023/03/11 06:15:06;;;;;;;1.50;0.77;;;;;;;;;;5021006;28;20093;-75
2023/03/11 06:17:32;;;;;;;3.22;0.70;;;;;;;;;;5021722;28;20040;-75
2023/03/11 06:19:58;;;;;;;3.63;1.50;;;;;;;;;;5019330;28;20041;-75
2023/03/11 06:22:24;;;;;;;4.13;2.05;;;;;;;;;;5030483;28;20084;-75
2023/03/11 06:24:50;;;;;;;4.72;2.90;;;;;;;;;;5027580;28;20496;-75
2023/03/11 06:27:16;;;;;;;4.47;2.47;;;;;;;;;;5022547;28;20032;-75
2023/03/11 06:29:42;;;;;;;4.05;1.42;;;;;;;;;;5028393;28;20021;-75
2023/03/11 06:32:08;;;;;;;3.63;2.13;;;;;;;;;;5032730;28;20029;-75
2023/03/11 06:34:34;;;;;;;10.48;3.92;;;;;;;;;;5028567;28;20042;-76
2023/03/11 06:37:00;;;;;;;4.57;2.88;;;;;;;;;;5028578;28;20066;-76
2023/03/11 06:39:26;;;;;;;2.03;0.95;;;;;;;;;;5027788;28;20071;-76
2023/03/11 06:41:52;;;;;;;4.03;1.98;;;;;;;;;;5027108;28;20574;-76
2023/03/11 06:44:18;;;;;;;8.02;3.88;;;;;;;;;;5022945;28;20041;-76
2023/03/11 06:46:44;;;;;;;11.30;5.78;;;;;;;;;;5021105;28;20031;-76
2023/03/11 06:49:10;;;;;;;8.88;6.25;;;;;;;;;;5028051;28;20122;-75
2023/03/11 06:51:36;;;;;;;9.77;6.32;;;;;;;;;;5009599;28;20091;-74
2023/03/11 06:54:02;;;;;;;13.27;7.10;;;;;;;;;;5027786;28;20374;-75
2023/03/11 06:56:28;;;;;;;8.93;5.13;;;;;;;;;;5026683;28;20029;-76
2023/03/11 06:58:54;;;;;;;10.20;6.10;;;;;;;;;;5028866;28;20034;-76
2023/03/11 07:01:24;;;;;;;8.90;5.13;;;;;;;;;;5025672;28;20036;-75
2023/03/11 07:03:51;;;;;;;8.85;2.15;;;;;;;;;;5028706;28;20026;-76
2023/03/11 07:06:18;;;;;;;8.55;4.15;;;;;;;;;;5013993;28;20120;-75
2023/03/11 07:08:46;;;;;;;4.72;2.03;;;;;;;;;;5029024;28;20037;-75
2023/03/11 07:11:14;;;;;;;8.88;4.97;;;;;;;;;;5028226;28;20041;-75
2023/03/11 07:13:41;;;;;;;10.15;4.03;;;;;;;;;;5014502;28;20427;-75
2023/03/11 07:16:09;;;;;;;7.90;3.25;;;;;;;;;;5010044;28;20065;-75
2023/03/11 07:18:36;;;;;;;8.25;2.65;;;;;;;;;;5021519;28;20034;-75
2023/03/11 07:21:03;;;;;;;6.32;2.53;;;;;;;;;;5023458;28;20037;-74
2023/03/11 07:23:29;;;;;;;4.75;1.77;;;;;;;;;;5031642;28;20108;-74
2023/03/11 07:25:55;;;;;;;3.20;1.30;;;;;;;;;;5023793;28;20037;-74
2023/03/11 07:28:22;;;;;;;3.25;1.25;;;;;;;;;;5027814;28;20536;-74
2023/03/11 07:30:48;;;;;;;4.00;1.50;;;;;;;;;;5029777;28;20029;-74
2023/03/11 07:33:14;;;;;;;4.72;2.13;;;;;;;;;;5020119;28;20725;-75
2023/03/11 07:35:40;;;;;;;8.38;2.85;;;;;;;;;;5018658;28;20040;-74
2023/03/11 07:38:07;;;;;;;11.13;5.85;;;;;;;;;;5020239;28;20037;-75
2023/03/11 07:40:33;;;;;;;7.95;3.50;;;;;;;;;;5022455;28;20486;-75
2023/03/11 07:42:59;;;;;;;8.73;4.35;;;;;;;;;;5020073;28;20076;-75
2023/03/11 07:45:25;;;;;;;7.65;3.97;;;;;;;;;;5018984;28;20497;-75
2023/03/11 07:47:51;;;;;;;8.23;4.10;;;;;;;;;;5027286;28;20076;-75
2023/03/11 07:50:18;;;;;;;11.05;4.25;;;;;;;;;;5026971;28;20030;-75
2023/03/11 07:52:44;;;;;;;9.60;3.90;;;;;;;;;;5027745;28;20021;-76
2023/03/11 07:55:10;;;;;;;6.18;3.17;;;;;;;;;;5022797;28;20037;-75
2023/03/11 07:57:36;;;;;;;7.93;1.58;;;;;;;;;;5024694;28;20029;-74
2023/03/11 08:00:02;;;;;;;4.13;1.77;;;;;;;;;;5027448;28;20765;-75
2023/03/11 08:02:28;;;;;;;4.13;1.42;;;;;;;;;;5022043;28;20108;-74
2023/03/11 08:04:55;;;;;;;4.88;1.52;;;;;;;;;;5031125;28;20034;-74
2023/03/11 08:07:21;;;;;;;2.20;0.90;;;;;;;;;;5016518;28;20038;-74
2023/03/11 08:09:47;;;;;;;2.83;0.70;;;;;;;;;;5023582;28;20037;-74
2023/03/11 08:12:13;;;;;;;5.72;2.17;;;;;;;;;;5022817;28;20025;-75
2023/03/11 08:14:40;;;;;;;7.93;3.63;;;;;;;;;;5020847;28;20043;-75
2023/03/11 08:17:06;;;;;;;7.93;3.90;;;;;;;;;;5014853;28;20056;-74
2023/03/11 08:19:32;;;;;;;8.50;5.82;;;;;;;;;;5016096;28;20088;-75
2023/03/11 08:22:00;;;;;;;9.32;6.38;;;;;;;;;;5011009;28;20089;-74
2023/03/11 08:24:26;;;;;;;4.65;1.80;;;;;;;;;;5002801;28;20088;-76
2023/03/11 08:26:54;;;;;;;2.17;0.80;;;;;;;;;;5004611;28;20045;-76
2023/03/11 08:29:20;;;;;;;5.57;1.92;;;;;;;;;;5004299;28;20099;-74
2023/03/11 08:31:46;;;;;;;9.05;4.45;;;;;;;;;;5004215;28;20054;-74
2023/03/11 08:34:16;;;;;;;7.22;3.38;;;;;;;;;;5002104;28;20022;-75
2023/03/11 08:36:42;;;;;;;6.30;2.72;;;;;;;;;;5003793;28;20087;-75
2023/03/11 08:39:08;;;;;;;7.75;4.30;;;;;;;;;;5003335;28;20072;-75
2023/03/11 08:41:34;;;;;;;8.73;5.35;;;;;;;;;;4996321;28;20086;-75
2023/03/11 08:44:00;;;;;;;10.43;6.22;;;;;;;;;;5001188;28;20490;-75
2023/03/11 08:46:28;;;;;;;8.02;5.47;;;;;;;;;;5000943;28;20042;-75
2023/03/11 08:48:54;;;;;;;7.50;3.00;;;;;;;;;;5001087;28;20092;-75
2023/03/11 08:51:20;;;;;;;4.15;2.17;;;;;;;;;;5005396;28;20038;-76
2023/03/11 08:53:46;;;;;;;4.90;2.72;;;;;;;;;;5008097;28;20037;-75
2023/03/11 08:56:12;;;;;;;4.45;2.05;;;;;;;;;;5004334;28;20081;-76
2023/03/11 08:58:38;;;;;;;9.57;4.20;;;;;;;;;;5006841;28;20022;-75
2023/03/11 09:01:05;;;;;;;3.88;2.10;;;;;;;;;;5004076;28;20042;-75
2023/03/11 09:03:32;;;;;;;7.63;3.33;;;;;;;;;;5005447;28;20121;-75
2023/03/11 09:05:59;;;;;;;11.40;5.30;;;;;;;;;;5009002;28;20061;-75
2023/03/11 09:08:26;;;;;;;7.30;4.30;;;;;;;;;;5006317;28;20052;-75
2023/03/11 09:10:52;;;;;;;5.82;2.75;;;;;;;;;;5006282;28;20042;-75
2023/03/11 09:13:18;;;;;;;6.18;2.80;;;;;;;;;;4984330;28;20084;-76
2023/03/11 09:15:44;;;;;;;3.95;1.85;;;;;;;;;;5005594;28;20079;-76
2023/03/11 09:18:13;;;;;;;3.10;1.23;;;;;;;;;;5009560;28;20036;-76
2023/03/11 09:20:40;;;;;;;4.32;1.10;;;;;;;;;;5009521;28;20034;-76
2023/03/11 09:23:06;;;;;;;3.65;1.60;;;;;;;;;;5023747;28;20054;-76
2023/03/11 09:25:32;;;;;;;4.72;1.55;;;;;;;;;;5003288;28;20029;-75
2023/03/11 09:27:59;;;;;;;7.63;3.15;;;;;;;;;;5024217;28;20355;-75
2023/03/11 09:30:25;;;;;;;10.40;2.92;;;;;;;;;;5001390;28;20060;-75
2023/03/11 09:32:51;;;;;;;5.70;2.60;;;;;;;;;;5023728;28;20041;-75
2023/03/11 09:35:17;;;;;;;3.83;1.98;;;;;;;;;;5021416;28;20045;-75
2023/03/11 09:37:43;;;;;;;2.15;1.08;;;;;;;;;;5020868;28;20417;-75
2023/03/11 09:40:11;;;;;;;6.50;1.70;;;;;;;;;;5023420;28;20041;-75
2023/03/11 09:42:42;;;;;;;5.20;1.15;;;;;;;;;;5022854;28;20490;-74
2023/03/11 09:45:19;;;;;;;4.00;1.50;;;;;;;;;;5023237;28;20053;-74
2023/03/11 09:48:08;;;;;;;4.53;1.20;;;;;;;;;;5020902;28;20032;-75
2023/03/11 09:50:37;;;;;;;2.38;0.70;;;;;;;;;;4985588;28;20052;-75
2023/03/11 09:53:22;;;;;;;2.45;0.90;;;;;;;;;;5020276;28;20040;-75
2023/03/11 09:55:55;;;;;;;4.10;1.63;;;;;;;;;;5019463;28;20037;-75
2023/03/11 09:58:40;;;;;;;5.50;1.63;;;;;;;;;;5022941;28;20029;-75
2023/03/11 10:01:13;;;;;;;4.63;1.23;;;;;;;;;;5023054;28;20071;-75
2023/03/11 10:03:39;;;;;;;5.03;1.70;;;;;;;;;;5024386;28;20038;-75
2023/03/11 10:06:11;;;;;;;3.80;1.00;;;;;;;;;;5022941;28;20046;-75
2023/03/11 10:08:41;;;;;;;3.92;1.35;;;;;;;;;;5026234;28;20040;-75
2023/03/11 10:11:13;;;;;;;3.40;1.02;;;;;;;;;;5031023;28;20025;-75
2023/03/11 10:13:43;;;;;;;4.32;1.17;;;;;;;;;;5024622;28;20487;-75
2023/03/11 10:16:09;;;;;;;3.67;1.02;;;;;;;;;;5023338;28;20042;-75
2023/03/11 10:18:46;;;;;;;5.63;1.42;;;;;;;;;;5025668;28;20114;-74
2023/03/11 10:21:18;;;;;;;2.75;1.30;;;;;;;;;;5026060;28;20041;-74
2023/03/11 10:23:44;;;;;;;2.67;1.20;;;;;;;;;;5005691;28;20038;-75
2023/03/11 10:26:21;;;;;;;1.98;0.55;;;;;;;;;;5013726;28;20835;-75
2023/03/11 10:29:06;;;;;;;5.07;0.80;;;;;;;;;;5007347;28;20030;-75
2023/03/11 10:31:36;;;;;;;10.50;1.90;;;;;;;;;;5014388;28;20558;-75
2023/03/11 10:34:05;;;;;;;8.18;3.30;;;;;;;;;;5008886;28;20026;-75
2023/03/11 10:36:37;;;;;;;7.38;4.45;;;;;;;;;;5013274;28;20860;-75
2023/03/11 10:39:04;;;;;;;7.72;3.88;;;;;;;;;;5001303;28;20068;-75
2023/03/11 10:41:36;;;;;;;36.55;23.90;;;;;;;;;;5006976;28;20124;-74
2023/03/11 10:44:05;;;;;;;24.05;15.50;;;;;;;;;;5002111;28;20037;-75
2023/03/11 10:46:31;;;;;;;13.13;4.90;;;;;;;;;;5008667;28;20088;-75
2023/03/11 10:48:57;;;;;;;6.05;3.63;;;;;;;;;;5008880;28;20427;-75
2023/03/11 10:51:26;;;;;;;4.95;1.90;;;;;;;;;;5004839;28;20048;-75
2023/03/11 10:53:53;;;;;;;3.00;1.23;;;;;;;;;;5005477;28;20129;-75
2023/03/11 10:56:28;;;;;;;3.60;1.00;;;;;;;;;;5005302;28;20038;-75
2023/03/11 10:58:54;;;;;;;4.10;0.98;;;;;;;;;;5005500;28;20458;-75
2023/03/11 11:01:20;;;;;;;5.97;2.28;;;;;;;;;;5007648;28;20038;-75
2023/03/11 11:03:51;;;;;;;6.53;2.83;;;;;;;;;;5007016;28;20396;-74
2023/03/11 11:06:20;;;;;;;7.65;3.22;;;;;;;;;;5001836;28;20038;-75
2023/03/11 11:08:46;;;;;;;6.68;2.92;;;;;;;;;;5009400;28;20067;-75
2023/03/11 11:11:23;;;;;;;5.40;1.30;;;;;;;;;;5003236;28;20407;-75
2023/03/11 11:13:59;;;;;;;1.85;0.95;;;;;;;;;;5005838;28;20034;-75
2023/03/11 11:16:25;;;;;;;1.75;0.60;;;;;;;;;;5002164;28;20390;-75
2023/03/11 11:19:02;;;;;;;5.22;0.98;;;;;;;;;;5008617;28;20874;-75
2023/03/11 11:21:33;;;;;;;5.63;1.30;;;;;;;;;;5009504;28;20053;-75
2023/03/11 11:24:17;;;;;;;5.78;1.92;;;;;;;;;;5021955;28;20041;-75
2023/03/11 11:27:02;;;;;;;9.55;5.47;;;;;;;;;;5019948;28;20048;-75
2023/03/11 11:29:28;;;;;;;11.35;8.07;;;;;;;;;;5023306;28;20478;-75
2023/03/11 11:32:09;;;;;;;8.48;5.07;;;;;;;;;;5025833;28;20487;-75
2023/03/11 11:34:35;;;;;;;4.25;1.65;;;;;;;;;;5021868;28;20030;-75
2023/03/11 11:37:03;;;;;;;2.55;0.90;;;;;;;;;;5014577;28;20045;-75
2023/03/11 11:39:32;;;;;;;4.13;0.98;;;;;;;;;;5023507;28;20762;-75
2023/03/11 11:42:00;;;;;;;3.40;0.70;;;;;;;;;;5022134;28;20037;-74
2023/03/11 11:44:32;;;;;;;1.70;0.60;;;;;;;;;;5022140;28;20105;-74
2023/03/11 11:47:03;;;;;;;6.68;2.72;;;;;;;;;;5022646;28;20088;-74
2023/03/11 11:49:31;;;;;;;6.60;3.03;;;;;;;;;;5023460;28;20025;-75
2023/03/11 11:52:03;;;;;;;7.00;2.65;;;;;;;;;;5022369;28;20529;-74
2023/03/11 11:54:35;;;;;;;4.20;1.40;;;;;;;;;;5022943;28;20025;-75
2023/03/11 11:57:08;;;;;;;2.38;0.80;;;;;;;;;;5021780;28;20050;-75
2023/03/11 11:59:35;;;;;;;2.10;0.55;;;;;;;;;;5025938;28;20034;-75
2023/03/11 12:02:21;;;;;;;3.03;0.63;;;;;;;;;;5024136;28;20048;-75
2023/03/11 12:05:01;;;;;;;4.10;0.98;;;;;;;;;;5002007;28;20801;-75
2023/03/11 12:07:46;;;;;;;3.90;1.42;;;;;;;;;;5022630;28;20029;-75
2023/03/11 12:10:24;;;;;;;6.25;3.05;;;;;;;;;;5020134;28;20025;-75
2023/03/11 12:12:53;;;;;;;6.38;3.05;;;;;;;;;;5021023;28;20045;-75
2023/03/11 12:15:25;;;;;;;6.05;2.30;;;;;;;;;;5023181;28;20542;-75
2023/03/11 12:17:54;;;;;;;7.22;2.40;;;;;;;;;;5008873;28;20038;-75
2023/03/11 12:20:31;;;;;;;3.35;1.30;;;;;;;;;;5021950;28;20038;-75
2023/03/11 12:23:20;;;;;;;2.67;0.80;;;;;;;;;;4960623;28;1137558;-75
2023/03/11 12:25:52;;;;;;;2.72;0.50;;;;;;;;;;4996226;28;20038;-76
2023/03/11 12:28:18;;;;;;;1.75;0.60;;;;;;;;;;5005102;28;20034;-76
2023/03/11 12:30:51;;;;;;;2.80;0.90;;;;;;;;;;5003361;28;20041;-76
2023/03/11 12:33:20;;;;;;;4.50;0.60;;;;;;;;;;5006112;28;20030;-75
2023/03/11 12:35:52;;;;;;;3.90;0.80;;;;;;;;;;4998085;28;20041;-76
2023/03/11 12:38:18;;;;;;;;;;;;;;;;;;5004803;28;20038;-75
2023/03/11 12:40:44;;;;;;;14.02;6.90;;;;;;;;;;5005710;28;19920;-75
2023/03/11 12:43:46;;;;;;;9.52;5.80;;;;;;;;;;5004591;28;20472;-75
2023/03/11 12:46:18;;;;;;;11.50;6.50;;;;;;;;;;4944757;29;20040;-75
2023/03/11 12:49:03;;;;;;;12.30;9.60;;;;;;;;;;4997119;28;20064;-75
2023/03/11 12:51:29;;;;;;;8.60;5.28;;;;;;;;;;5004933;28;20414;-75
2023/03/11 12:53:55;;;;;;;5.53;2.03;;;;;;;;;;5013273;28;20038;-75
2023/03/11 12:56:40;;;;;;;5.45;2.75;;;;;;;;;;5003188;28;20403;-75
2023/03/11 12:59:09;;;;;;;10.07;3.35;;;;;;;;;;5000802;28;20097;-75
2023/03/11 13:01:43;;;;;;;7.10;4.18;;;;;;;;;;5005419;28;20034;-74
2023/03/11 13:04:25;;;;;;;6.25;3.63;;;;;;;;;;5006896;28;20045;-75
2023/03/11 13:06:57;;;;;;;6.25;2.22;;;;;;;;;;5001793;28;20061;-75
2023/03/11 13:09:23;;;;;;;6.15;3.20;;;;;;;;;;5003341;28;20302;-75
2023/03/11 13:11:50;;;;;;;7.90;4.25;;;;;;;;;;5000691;28;20117;-74
2023/03/11 13:14:32;;;;;;;7.30;3.60;;;;;;;;;;5006026;28;20030;-74
2023/03/11 13:17:24;;;;;;;2.95;0.47;;;;;;;;;;5001159;28;20053;-74
2023/03/11 13:19:51;;;;;;;3.30;0.90;;;;;;;;;;5001123;28;20022;-75
2023/03/11 13:22:36;;;;;;;7.28;2.33;;;;;;;;;;5011153;28;20058;-74
2023/03/11 13:25:19;;;;;;;3.70;1.48;;;;;;;;;;5024134;28;20049;-74
2023/03/11 13:27:48;;;;;;;3.30;0.80;;;;;;;;;;5022454;28;20061;-74
2023/03/11 13:30:19;;;;;;;4.10;1.08;;;;;;;;;;5025466;28;20083;-74
2023/03/11 13:32:48;;;;;;;5.38;1.98;;;;;;;;;;5023446;28;20040;-74
2023/03/11 13:35:37;;;;;;;11.40;4.00;;;;;;;;;;5026199;28;20034;-74
2023/03/11 13:38:09;;;;;;;7.90;3.63;;;;;;;;;;4981483;28;20054;-74
2023/03/11 13:40:39;;;;;;;11.30;7.68;;;;;;;;;;5028599;28;20037;-74
2023/03/11 13:43:11;;;;;;;12.75;8.80;;;;;;;;;;5024641;28;20049;-74
2023/03/11 13:45:37;;;;;;;9.75;7.75;;;;;;;;;;5027805;28;20036;-74
2023/03/11 13:48:13;;;;;;;9.95;7.07;;;;;;;;;;5019610;28;20037;-74
2023/03/11 13:50:47;;;;;;;9.77;6.07;;;;;;;;;;5026633;28;20036;-74
2023/03/11 13:53:19;;;;;;;3.60;1.60;;;;;;;;;;5022376;28;20037;-74
2023/03/11 13:55:46;;;;;;;2.58;0.60;;;;;;;;;;5014922;28;20490;-74
2023/03/11 13:58:15;;;;;;;2.42;0.43;;;;;;;;;;5026350;28;20050;-74
2023/03/11 14:00:47;;;;;;;1.20;0.30;;;;;;;;;;5023128;28;20543;-74
2023/03/11 14:03:17;;;;;;;1.25;0.45;;;;;;;;;;5025743;28;20040;-74
2023/03/11 14:05:46;;;;;;;12.32;3.97;;;;;;;;;;5024464;28;20053;-74
2023/03/11 14:08:22;;;;;;;8.18;2.83;;;;;;;;;;5027796;28;20033;-74
2023/03/11 14:10:51;;;;;;;7.25;3.13;;;;;;;;;;5025084;28;20076;-74
2023/03/11 14:13:18;;;;;;;16.25;7.88;;;;;;;;;;5022551;28;20061;-74
2023/03/11 14:15:50;;;;;;;11.30;6.60;;;;;;;;;;5028328;28;20032;-74
2023/03/11 14:18:16;;;;;;;;;;;;;;;;;;5023902;28;20572;-74
2023/03/11 14:20:46;;;;;;;11.25;5.43;;;;;;;;;;5019653;28;20012;-75
2023/03/11 14:23:16;;;;;;;7.30;4.15;;;;;;;;;;5020533;28;20053;-75
2023/03/11 14:25:42;;;;;;;7.60;5.72;;;;;;;;;;5019796;28;20034;-75
2023/03/11 14:28:16;;;;;;;8.93;6.55;;;;;;;;;;5005121;28;20033;-74
2023/03/11 14:30:54;;;;;;;10.15;5.88;;;;;;;;;;5023033;28;20099;-74
2023/03/11 14:33:22;;;;;;;9.40;5.95;;;;;;;;;;5026617;28;20060;-74
2023/03/11 14:35:55;;;;;;;8.10;5.43;;;;;;;;;;5016403;28;20053;-74
2023/03/11 14:38:22;;;;;;;16.55;9.50;;;;;;;;;;5024573;28;20259;-74
2023/03/11 14:40:59;;;;;;;16.60;9.90;;;;;;;;;;5030632;28;20029;-74
2023/03/11 14:43:26;;;;;;;16.10;10.23;;;;;;;;;;5023987;28;20490;-74
2023/03/11 14:45:53;;;;;;;13.10;8.68;;;;;;;;;;5026052;28;20124;-74
2023/03/11 14:48:19;;;;;;;8.30;5.28;;;;;;;;;;5024141;28;20033;-75
2023/03/11 14:50:48;;;;;;;9.40;5.28;;;;;;;;;;5025277;28;20317;-74